Time;durP1;ratioP1;P1;durP2;ratioP2;P2;SDS_P1;SDS_P2;PMS_P1;PMS_P2;Temp;Humidity;BMP_temperature;BMP_pressure;BME280_temperature;BME280_humidity;BME280_pressure;Samples;Min_cycle;Max_cycle;Signal;HPM_P1;HPM_P2
2022/11/03 00:01:51;;;;;;;10.93;2.80;;;14.00;99.90;;;;;;4976252;28;20175;-70
2022/11/03 00:04:19;;;;;;;11.10;3.10;;;14.00;99.90;;;;;;4976417;28;20167;-71
2022/11/03 00:06:49;;;;;;;9.23;2.80;;;14.00;99.90;;;;;;4975119;28;20180;-70
2022/11/03 00:09:16;;;;;;;10.63;3.03;;;14.00;99.90;;;;;;4976473;28;20176;-69
2022/11/03 00:11:44;;;;;;;12.27;3.10;;;14.00;99.90;;;;;;4976371;28;20178;-70
2022/11/03 00:14:10;;;;;;;7.23;2.53;;;14.00;99.90;;;;;;4976176;28;20683;-68
2022/11/03 00:16:37;;;;;;;9.47;2.63;;;14.00;99.90;;;;;;4975845;28;20183;-69
2022/11/03 00:19:03;;;;;;;12.07;3.17;;;14.00;99.90;;;;;;4974812;28;20692;-70
2022/11/03 00:21:29;;;;;;;9.47;2.47;;;14.00;99.90;;;;;;4976418;28;20168;-70
2022/11/03 00:23:55;;;;;;;11.40;2.77;;;14.00;99.90;;;;;;4976196;28;20636;-70
2022/11/03 00:26:28;;;;;;;9.10;2.73;;;14.00;99.90;;;;;;4976225;28;20632;-70
2022/11/03 00:29:01;;;;;;;8.67;3.00;;;14.00;99.90;;;;;;4976083;28;20194;-70
2022/11/03 00:31:32;;;;;;;8.87;2.67;;;13.90;99.90;;;;;;4975484;28;20226;-70
2022/11/03 00:33:59;;;;;;;8.40;2.73;;;13.90;99.90;;;;;;4975939;28;20183;-69
2022/11/03 00:36:27;;;;;;;8.83;2.80;;;14.00;99.90;;;;;;4976058;28;20178;-70
2022/11/03 00:38:54;;;;;;;11.37;3.27;;;14.00;99.90;;;;;;4975668;28;20274;-70
2022/11/03 00:41:21;;;;;;;12.80;2.90;;;13.90;99.90;;;;;;4975892;28;20180;-70
2022/11/03 00:43:48;;;;;;;8.53;2.80;;;14.00;99.90;;;;;;4975655;28;20175;-70
2022/11/03 00:46:16;;;;;;;9.90;2.97;;;13.90;99.90;;;;;;4974879;28;20263;-70
2022/11/03 00:48:41;;;;;;;13.77;2.90;;;14.00;99.90;;;;;;4974405;28;20632;-70
2022/11/03 00:51:15;;;;;;;9.67;2.53;;;13.90;99.90;;;;;;4975553;28;20175;-70
2022/11/03 00:53:46;;;;;;;8.87;2.80;;;14.00;99.90;;;;;;4975513;28;20182;-69
2022/11/03 00:56:14;;;;;;;5.20;2.67;;;14.00;99.90;;;;;;4975386;28;20176;-69
2022/11/03 00:58:41;;;;;;;10.57;2.87;;;14.00;99.90;;;;;;4975241;28;20210;-70
2022/11/03 01:01:18;;;;;;;9.37;2.60;;;14.00;99.90;;;;;;4975122;28;20182;-70
2022/11/03 01:06:50;;;;;;;10.07;3.10;;;14.00;99.90;;;;;;4975691;28;20598;-70
2022/11/03 01:09:19;;;;;;;9.40;2.67;;;14.00;99.90;;;;;;4975141;28;20188;-69
2022/11/03 01:12:02;;;;;;;10.57;2.87;;;14.00;99.90;;;;;;4975388;28;20180;-69
2022/11/03 01:14:36;;;;;;;8.30;2.97;;;14.00;99.90;;;;;;4974750;28;20189;-69
2022/11/03 01:17:06;;;;;;;9.27;2.43;;;14.00;99.90;;;;;;4975222;28;20255;-70
2022/11/03 01:19:32;;;;;;;9.40;2.53;;;14.00;99.90;;;;;;4974960;28;20644;-70
2022/11/03 01:21:58;;;;;;;10.53;2.80;;;13.90;99.90;;;;;;4975087;28;20254;-70
2022/11/03 01:24:23;;;;;;;8.40;2.83;;;13.90;99.90;;;;;;4975280;28;20183;-69
2022/11/03 01:26:49;;;;;;;8.90;2.63;;;13.90;99.90;;;;;;4975105;28;20184;-70
2022/11/03 01:29:15;;;;;;;8.57;2.67;;;13.90;99.90;;;;;;4974779;28;20180;-70
2022/11/03 01:31:41;;;;;;;11.73;2.80;;;13.90;99.90;;;;;;4974739;28;20227;-69
2022/11/03 01:34:08;;;;;;;8.87;2.87;;;13.90;99.90;;;;;;4974928;28;20219;-70
2022/11/03 01:36:34;;;;;;;9.97;2.70;;;13.80;99.90;;;;;;4974966;28;20272;-69
2022/11/03 01:38:59;;;;;;;7.87;2.80;;;13.80;99.90;;;;;;4974738;28;20632;-69
2022/11/03 01:41:27;;;;;;;9.43;2.63;;;13.80;99.90;;;;;;4975033;28;20263;-70
2022/11/03 01:44:08;;;;;;;6.30;3.00;;;13.80;99.90;;;;;;4974480;28;20267;-69
2022/11/03 01:46:53;;;;;;;7.77;2.53;;;13.80;99.90;;;;;;4973599;28;20246;-69
2022/11/03 01:49:59;;;;;;;10.63;2.93;;;13.80;99.90;;;;;;4974671;28;20276;-68
2022/11/03 01:52:35;;;;;;;6.43;2.50;;;13.80;99.90;;;;;;4953366;28;20699;-69
2022/11/03 01:55:05;;;;;;;11.20;2.30;;;13.80;99.90;;;;;;4969107;28;20188;-69
2022/11/03 01:57:39;;;;;;;12.70;3.10;;;13.90;99.90;;;;;;4973869;28;20639;-70
2022/11/03 02:00:06;;;;;;;9.03;2.47;;;13.80;99.90;;;;;;4974359;28;20174;-69
2022/11/03 02:02:32;;;;;;;10.30;2.63;;;13.80;99.90;;;;;;4973228;28;20275;-70
2022/11/03 02:05:01;;;;;;;9.47;2.60;;;13.80;99.90;;;;;;4974411;28;20264;-70
2022/11/03 02:07:37;;;;;;;6.33;2.70;;;13.80;99.90;;;;;;4974415;28;20259;-69
2022/11/03 02:10:04;;;;;;;11.27;3.00;;;13.80;99.90;;;;;;4974435;28;20187;-70
2022/11/03 02:12:30;;;;;;;7.83;2.70;;;13.90;99.90;;;;;;4974233;28;20201;-68
2022/11/03 02:15:07;;;;;;;7.97;2.43;;;13.80;99.90;;;;;;4974400;28;20168;-70
2022/11/03 02:17:34;;;;;;;6.67;2.40;;;13.90;99.90;;;;;;4974274;28;20261;-69
2022/11/03 02:20:07;;;;;;;7.90;2.40;;;13.90;99.90;;;;;;4974382;28;20238;-69
2022/11/03 02:23:05;;;;;;;8.60;2.57;;;13.80;99.90;;;;;;4974478;28;20168;-69
2022/11/03 02:25:41;;;;;;;6.13;2.43;;;13.90;99.90;;;;;;4974463;28;20656;-68
2022/11/03 02:28:07;;;;;;;7.50;2.53;;;13.90;99.90;;;;;;4973851;28;20249;-69
2022/11/03 02:30:55;;;;;;;11.67;2.60;;;13.90;99.90;;;;;;4974062;28;20202;-70
2022/11/03 02:33:47;;;;;;;7.73;2.60;;;13.90;99.90;;;;;;4974227;28;20200;-69
2022/11/03 02:36:24;;;;;;;8.53;2.73;;;13.90;99.90;;;;;;4974187;28;20612;-70
2022/11/03 02:39:06;;;;;;;8.70;2.33;;;13.90;99.90;;;;;;4974113;28;20211;-69
2022/11/03 02:41:35;;;;;;;7.53;2.80;;;14.00;99.90;;;;;;4974002;28;20176;-69
2022/11/03 02:44:03;;;;;;;10.77;2.67;;;14.00;99.90;;;;;;4974143;28;20210;-69
2022/11/03 02:46:30;;;;;;;11.17;3.10;;;13.90;99.90;;;;;;4974300;28;20164;-68
2022/11/03 02:48:56;;;;;;;9.40;2.70;;;13.90;99.90;;;;;;4974200;28;20223;-68
2022/11/03 02:51:23;;;;;;;12.23;2.53;;;13.90;99.90;;;;;;4974105;28;20609;-68
2022/11/03 02:54:13;;;;;;;11.90;2.80;;;13.80;99.90;;;;;;4974077;28;20168;-70
2022/11/03 02:56:46;;;;;;;7.43;2.70;;;13.90;99.90;;;;;;4973810;28;20180;-69
2022/11/03 02:59:16;;;;;;;6.00;2.13;;;13.90;99.90;;;;;;4973954;28;20207;-69
2022/11/03 03:01:51;;;;;;;7.00;2.73;;;14.00;99.90;;;;;;4973966;28;20175;-69
2022/11/03 03:04:21;;;;;;;8.57;2.93;;;14.00;99.90;;;;;;4973931;28;20207;-68
2022/11/03 03:07:00;;;;;;;6.23;2.40;;;14.00;99.90;;;;;;4974045;28;20164;-68
2022/11/03 03:09:56;;;;;;;9.33;2.70;;;14.00;99.90;;;;;;4974233;28;20171;-70
2022/11/03 03:12:24;;;;;;;8.97;2.73;;;14.00;99.90;;;;;;4977491;28;20168;-69
2022/11/03 03:14:51;;;;;;;9.37;2.83;;;14.00;99.90;;;;;;4977526;28;20259;-69
2022/11/03 03:17:19;;;;;;;9.00;2.37;;;14.00;99.90;;;;;;4977156;28;20207;-69
2022/11/03 03:19:57;;;;;;;8.13;2.40;;;14.00;99.90;;;;;;4977367;28;20172;-69
2022/11/03 03:22:54;;;;;;;11.07;2.53;;;14.00;99.90;;;;;;4977150;28;20691;-69
2022/11/03 03:25:31;;;;;;;8.80;2.73;;;14.00;99.90;;;;;;4977077;28;20187;-69
2022/11/03 03:28:05;;;;;;;10.40;2.57;;;14.00;99.90;;;;;;4977128;28;20238;-69
2022/11/03 03:30:33;;;;;;;10.13;3.10;;;14.00;99.90;;;;;;4976827;28;20178;-68
2022/11/03 03:33:02;;;;;;;5.63;2.87;;;14.00;99.90;;;;;;4977059;28;20203;-68
2022/11/03 03:35:30;;;;;;;6.70;2.27;;;14.00;99.90;;;;;;4977222;28;20160;-69
2022/11/03 03:38:02;;;;;;;6.90;2.57;;;14.00;99.90;;;;;;4977055;28;20211;-70
2022/11/03 03:40:35;;;;;;;8.63;2.87;;;14.00;99.90;;;;;;4976553;28;20168;-69
2022/11/03 03:43:03;;;;;;;11.00;3.00;;;14.00;99.90;;;;;;4975630;28;20176;-69
2022/11/03 03:45:30;;;;;;;7.90;2.60;;;14.00;99.90;;;;;;4976983;28;20184;-69
2022/11/03 03:47:56;;;;;;;11.90;2.57;;;14.00;99.90;;;;;;4976874;28;20176;-70
2022/11/03 03:50:24;;;;;;;7.57;2.40;;;14.00;99.90;;;;;;4976661;28;20215;-69
2022/11/03 03:52:56;;;;;;;10.93;2.90;;;14.00;99.90;;;;;;4974982;28;20199;-69
2022/11/03 03:55:25;;;;;;;9.73;2.70;;;14.10;99.90;;;;;;4976606;28;20226;-70
2022/11/03 03:57:50;;;;;;;10.77;2.53;;;14.10;99.90;;;;;;4976065;28;20200;-69
2022/11/03 04:00:16;;;;;;;9.10;2.77;;;14.10;99.90;;;;;;4976583;28;20171;-69
2022/11/03 04:02:42;;;;;;;7.50;2.57;;;14.10;99.90;;;;;;4976462;28;20633;-70
2022/11/03 04:05:08;;;;;;;9.13;2.60;;;14.10;99.90;;;;;;4976240;28;20498;-69
2022/11/03 04:07:45;;;;;;;7.90;2.60;;;14.10;99.90;;;;;;4976225;28;20168;-69
2022/11/03 04:10:11;;;;;;;7.47;2.60;;;14.10;99.90;;;;;;4976314;28;20172;-69
2022/11/03 04:23:36;;;;;;;9.47;2.97;;;13.90;99.90;;;;;;4975579;28;20229;-68
2022/11/03 04:26:05;;;;;;;10.00;2.73;;;13.90;99.90;;;;;;4976205;28;20176;-69
2022/11/03 04:28:31;;;;;;;6.70;2.70;;;14.00;99.90;;;;;;4976475;28;20199;-69
2022/11/03 04:30:58;;;;;;;11.50;2.87;;;13.90;99.90;;;;;;4975606;28;20687;-68
2022/11/03 04:33:24;;;;;;;7.33;2.77;;;14.00;99.90;;;;;;4975675;28;20183;-68
2022/11/03 04:35:50;;;;;;;8.97;2.63;;;14.00;99.90;;;;;;4975549;28;20650;-69
2022/11/03 04:38:23;;;;;;;6.63;2.37;;;14.00;99.90;;;;;;4975360;28;20211;-69
2022/11/03 04:40:55;;;;;;;8.63;2.63;;;14.00;99.90;;;;;;4975662;28;20171;-69
2022/11/03 04:43:31;;;;;;;6.50;2.63;;;14.00;99.90;;;;;;4975669;28;20663;-69
2022/11/03 04:45:57;;;;;;;11.77;3.13;;;14.10;99.90;;;;;;4975507;28;20171;-69
2022/11/03 04:48:24;;;;;;;8.60;2.80;;;14.10;99.90;;;;;;4975685;28;20176;-69
2022/11/03 04:50:56;;;;;;;8.87;2.73;;;14.10;99.90;;;;;;4975117;28;20203;-69
2022/11/03 04:53:22;;;;;;;11.27;3.00;;;14.10;99.90;;;;;;4975205;28;20258;-69
2022/11/03 04:55:50;;;;;;;8.27;2.70;;;14.20;99.90;;;;;;4975261;28;20255;-69
2022/11/03 04:58:22;;;;;;;6.60;2.60;;;14.20;99.90;;;;;;4975168;28;20204;-69
2022/11/03 05:00:53;;;;;;;14.77;2.80;;;14.20;99.90;;;;;;4975377;28;20198;-69
2022/11/03 05:03:22;;;;;;;9.80;2.70;;;14.20;99.90;;;;;;4975009;28;20168;-69
2022/11/03 05:05:48;;;;;;;10.20;2.73;;;14.10;99.90;;;;;;4974665;28;20632;-69
2022/11/03 05:08:17;;;;;;;8.97;2.57;;;14.10;99.90;;;;;;4975068;28;20173;-68
2022/11/03 05:10:43;;;;;;;8.30;2.60;;;14.10;99.90;;;;;;4974841;28;20196;-69
2022/11/03 05:13:24;;;;;;;9.30;2.80;;;14.10;99.90;;;;;;4974616;28;20210;-68
2022/11/03 05:15:51;;;;;;;8.30;2.77;;;14.20;99.90;;;;;;4975085;28;20203;-68
2022/11/03 05:18:48;;;;;;;7.37;2.80;;;14.10;99.90;;;;;;4974728;28;20216;-69
2022/11/03 05:21:20;;;;;;;7.27;2.80;;;14.00;99.90;;;;;;4952488;29;20193;-69
2022/11/03 05:23:49;;;;;;;7.80;2.70;;;14.10;99.90;;;;;;4952645;28;20173;-69
2022/11/03 05:26:23;;;;;;;10.47;2.83;;;14.00;99.90;;;;;;4953547;28;20195;-71
2022/11/03 05:28:58;;;;;;;6.50;2.50;;;14.00;99.90;;;;;;4953347;28;20176;-69
2022/11/03 05:31:30;;;;;;;10.03;3.30;;;13.90;99.90;;;;;;4953013;29;20224;-69
2022/11/03 05:33:58;;;;;;;9.17;3.10;;;13.90;99.90;;;;;;4953029;28;20200;-69
2022/11/03 05:36:26;;;;;;;7.13;2.93;;;13.80;99.90;;;;;;4952946;29;20180;-70
2022/11/03 05:39:14;;;;;;;9.27;3.20;;;13.80;99.90;;;;;;4953001;29;20276;-68
2022/11/03 05:41:40;;;;;;;13.90;2.93;;;13.80;99.90;;;;;;4946418;28;20191;-68
2022/11/03 05:44:35;;;;;;;9.83;2.80;;;13.80;99.90;;;;;;4952936;29;20728;-70
2022/11/03 05:47:04;;;;;;;6.43;3.17;;;13.70;99.90;;;;;;4952798;28;20645;-69
2022/11/03 05:49:29;;;;;;;14.93;3.07;;;13.70;99.90;;;;;;4952036;29;20176;-69
2022/11/03 05:51:55;;;;;;;10.13;2.90;;;13.70;99.90;;;;;;4952310;28;20548;-69
2022/11/03 05:54:34;;;;;;;14.57;3.17;;;13.70;99.90;;;;;;4953135;29;20177;-69
2022/11/03 05:57:00;;;;;;;11.93;3.50;;;13.70;99.90;;;;;;4958010;28;20179;-69
2022/11/03 05:59:28;;;;;;;10.87;3.80;;;13.70;99.90;;;;;;4974137;28;20682;-69
2022/11/03 06:01:58;;;;;;;8.33;3.07;;;13.70;99.90;;;;;;4973732;28;20176;-69
2022/11/03 06:04:30;;;;;;;10.10;2.90;;;13.70;99.90;;;;;;4973862;28;20175;-69
2022/11/03 06:07:14;;;;;;;11.93;3.07;;;13.60;99.90;;;;;;4973960;28;20275;-69
2022/11/03 06:09:40;;;;;;;11.07;3.33;;;13.60;99.90;;;;;;4973855;28;20186;-69
2022/11/03 06:12:13;;;;;;;11.80;3.30;;;13.60;99.90;;;;;;4973184;28;20251;-69
2022/11/03 06:14:38;;;;;;;9.53;2.77;;;13.60;99.90;;;;;;4973609;28;20192;-69
2022/11/03 06:17:08;;;;;;;9.60;3.20;;;13.60;99.90;;;;;;4974010;28;20234;-69
2022/11/03 06:19:41;;;;;;;7.67;3.20;;;13.60;99.90;;;;;;4971824;28;20243;-68
2022/11/03 06:22:26;;;;;;;12.53;3.50;;;13.60;99.90;;;;;;4973316;28;20662;-68
2022/11/03 06:24:58;;;;;;;10.17;2.63;;;13.60;99.90;;;;;;4973374;28;20542;-69
2022/11/03 06:27:27;;;;;;;12.80;3.37;;;13.50;99.90;;;;;;4973618;28;20176;-69
2022/11/03 06:30:00;;;;;;;12.73;3.20;;;13.60;99.90;;;;;;4971741;28;20267;-68
2022/11/03 06:32:27;;;;;;;11.07;3.27;;;13.60;99.90;;;;;;4972732;28;20275;-69
2022/11/03 06:34:57;;;;;;;10.23;3.00;;;13.60;99.90;;;;;;4972023;28;20667;-69
2022/11/03 06:37:26;;;;;;;13.73;3.70;;;13.60;99.90;;;;;;4973677;28;20184;-69
2022/11/03 06:40:19;;;;;;;15.03;3.67;;;13.70;99.90;;;;;;4973598;28;20211;-69
2022/11/03 06:42:45;;;;;;;10.87;3.67;;;13.70;99.90;;;;;;4969582;28;20200;-69
2022/11/03 06:45:21;;;;;;;9.60;3.00;;;13.60;99.90;;;;;;4975577;28;20184;-69
2022/11/03 06:47:47;;;;;;;11.93;3.00;;;13.70;99.90;;;;;;4976821;28;20238;-69
2022/11/03 06:50:24;;;;;;;8.43;3.33;;;13.70;99.90;;;;;;4976810;28;20613;-69
2022/11/03 06:52:51;;;;;;;12.10;3.50;;;13.70;99.90;;;;;;4976632;28;20694;-70
2022/11/03 06:55:24;;;;;;;8.77;3.10;;;13.80;99.90;;;;;;4976779;28;20199;-69
2022/11/03 06:57:58;;;;;;;9.70;3.17;;;13.80;99.90;;;;;;4977291;28;20204;-69
2022/11/03 07:00:25;;;;;;;9.07;2.80;;;13.80;99.90;;;;;;4976389;28;20662;-69
2022/11/03 07:02:55;;;;;;;12.10;3.00;;;13.80;99.90;;;;;;4976101;28;20184;-70
2022/11/03 07:05:27;;;;;;;9.00;2.90;;;13.90;99.90;;;;;;4976811;28;20175;-70
2022/11/03 07:07:57;;;;;;;10.87;2.97;;;13.90;99.90;;;;;;4977117;28;20234;-70
2022/11/03 07:10:25;;;;;;;12.77;3.23;;;13.80;99.90;;;;;;4976888;28;20639;-70
2022/11/03 07:12:52;;;;;;;12.27;2.73;;;13.80;99.90;;;;;;4976285;28;20501;-69
2022/11/03 07:15:32;;;;;;;7.10;2.93;;;13.80;99.90;;;;;;4977148;28;20605;-68
2022/11/03 07:18:01;;;;;;;8.40;2.73;;;13.80;99.90;;;;;;4974548;28;20242;-69
2022/11/03 07:20:27;;;;;;;9.37;3.20;;;13.80;99.90;;;;;;4975885;28;20635;-68
2022/11/03 07:22:54;;;;;;;8.23;2.73;;;13.80;99.90;;;;;;4976326;28;20664;-69
2022/11/03 07:25:21;;;;;;;5.43;2.63;;;13.80;99.90;;;;;;4975906;28;20164;-68
2022/11/03 07:27:53;;;;;;;11.50;3.13;;;13.80;99.90;;;;;;4976149;28;20172;-68
2022/11/03 07:30:21;;;;;;;7.87;2.70;;;13.80;99.90;;;;;;4976195;28;20255;-69
2022/11/03 07:32:49;;;;;;;12.57;3.47;;;13.80;99.90;;;;;;4976181;28;20183;-68
2022/11/03 07:35:31;;;;;;;10.10;3.03;;;13.60;99.90;;;;;;4975979;28;20226;-68
2022/11/03 07:38:02;;;;;;;10.50;3.47;;;13.80;99.90;;;;;;4976078;28;20199;-68
2022/11/03 07:40:32;;;;;;;9.33;3.97;;;13.80;99.90;;;;;;4974391;28;20898;-68
2022/11/03 07:42:59;;;;;;;10.73;4.60;;;13.80;99.90;;;;;;4977556;28;20185;-68
2022/11/03 07:45:44;;;;;;;12.00;4.97;;;13.90;99.90;;;;;;4975475;28;20210;-68
2022/11/03 07:48:32;;;;;;;10.60;4.77;;;13.80;99.90;;;;;;4975610;28;20180;-66
2022/11/03 07:51:21;;;;;;;13.37;4.80;;;13.90;99.90;;;;;;4975185;28;20251;-65
2022/11/03 07:53:49;;;;;;;8.30;3.17;;;13.80;99.90;;;;;;4973969;28;20184;-68
2022/11/03 07:56:20;;;;;;;8.30;3.53;;;13.80;99.90;;;;;;4973695;28;20275;-70
2022/11/03 07:58:49;;;;;;;8.10;2.90;;;13.70;99.90;;;;;;4980745;28;20211;-70
2022/11/03 08:01:51;;;;;;;8.43;3.57;;;13.70;99.90;;;;;;4980850;28;20184;-69
2022/11/03 08:04:21;;;;;;;9.63;3.47;;;13.70;99.90;;;;;;4963779;28;20294;-68
2022/11/03 08:06:48;;;;;;;14.50;4.03;;;13.70;99.90;;;;;;4968933;28;20191;-68
2022/11/03 08:09:14;;;;;;;10.10;3.23;;;13.70;99.90;;;;;;4967130;28;20187;-69
2022/11/03 08:11:39;;;;;;;8.93;3.67;;;13.70;99.90;;;;;;4965271;28;20196;-69
2022/11/03 08:14:05;;;;;;;10.63;3.63;;;13.80;99.90;;;;;;4972242;28;20235;-69
2022/11/03 08:16:30;;;;;;;9.33;3.07;;;13.80;99.90;;;;;;4979458;28;20187;-68
2022/11/03 08:18:56;;;;;;;12.37;4.60;;;13.70;99.90;;;;;;4962156;28;20244;-69
2022/11/03 08:21:22;;;;;;;8.60;4.10;;;13.70;99.90;;;;;;4970438;28;20303;-69
2022/11/03 08:23:47;;;;;;;11.83;3.57;;;13.70;99.90;;;;;;4958804;28;20192;-68
2022/11/03 08:26:14;;;;;;;9.90;3.17;;;13.80;99.90;;;;;;4968633;28;20254;-69
2022/11/03 08:28:39;;;;;;;10.10;3.03;;;13.80;99.90;;;;;;4973408;28;20180;-69
2022/11/03 08:31:05;;;;;;;7.33;2.47;;;13.70;99.90;;;;;;4966626;28;20231;-68
2022/11/03 08:33:32;;;;;;;10.70;3.17;;;13.70;99.90;;;;;;4969737;28;20321;-68
2022/11/03 08:35:58;;;;;;;6.83;2.60;;;13.60;99.90;;;;;;4963840;28;20195;-68
2022/11/03 08:38:24;;;;;;;6.73;2.40;;;13.70;99.90;;;;;;4975481;28;20223;-69
2022/11/03 08:40:49;;;;;;;6.60;2.60;;;13.70;99.90;;;;;;4978564;28;20189;-69
2022/11/03 08:43:15;;;;;;;6.60;2.60;;;13.60;99.90;;;;;;5008107;28;20178;-69
2022/11/03 08:45:40;;;;;;;11.63;3.37;;;13.60;99.90;;;;;;4985827;28;20191;-68
2022/11/03 08:48:06;;;;;;;8.07;3.33;;;13.60;99.90;;;;;;4982544;28;20188;-69
2022/11/03 08:50:32;;;;;;;8.20;3.53;;;13.60;99.90;;;;;;4988120;28;20191;-68
2022/11/03 08:52:57;;;;;;;7.63;2.90;;;13.70;99.90;;;;;;4986780;28;20640;-69
2022/11/03 08:55:23;;;;;;;11.23;3.13;;;13.60;99.90;;;;;;4983506;28;20187;-68
2022/11/03 08:57:48;;;;;;;7.97;3.00;;;13.60;99.90;;;;;;4988464;28;20210;-68
2022/11/03 09:00:15;;;;;;;8.20;2.70;;;13.70;99.90;;;;;;4985838;28;20603;-69
2022/11/03 09:02:44;;;;;;;9.83;2.40;;;13.70;99.90;;;;;;4990646;28;20166;-69
2022/11/03 09:05:11;;;;;;;6.97;2.67;;;13.70;99.90;;;;;;4983046;28;20193;-68
2022/11/03 09:07:40;;;;;;;8.40;3.03;;;13.70;99.90;;;;;;4996500;28;20223;-68
2022/11/03 09:10:08;;;;;;;9.03;3.00;;;13.80;99.90;;;;;;4990366;28;20251;-69
2022/11/03 09:12:34;;;;;;;6.93;2.60;;;13.80;1.00;;;;;;4982158;28;20190;-69
2022/11/03 09:14:59;;;;;;;2.80;1.87;;;13.70;1.00;;;;;;4992160;28;20198;-69
2022/11/03 09:17:25;;;;;;;7.47;2.63;;;13.80;1.00;;;;;;4985622;28;20208;-69
2022/11/03 09:19:50;;;;;;;8.37;3.00;;;13.80;1.00;;;;;;4989735;28;20219;-70
2022/11/03 09:22:16;;;;;;;8.43;3.47;;;13.80;1.00;;;;;;4990765;28;20179;-67
2022/11/03 09:24:42;;;;;;;10.53;4.03;;;13.90;1.00;;;;;;4994080;28;20637;-69
2022/11/03 09:27:07;;;;;;;10.23;4.00;;;14.10;1.00;;;;;;4985210;28;20187;-68
2022/11/03 09:29:33;;;;;;;12.27;4.60;;;14.20;1.00;;;;;;4987255;28;20292;-68
2022/11/03 09:31:58;;;;;;;10.43;4.90;;;14.40;1.00;;;;;;4997131;28;20309;-69
2022/11/03 09:34:24;;;;;;;9.13;3.43;;;14.60;1.00;;;;;;4995963;28;20187;-69
2022/11/03 09:36:50;;;;;;;7.27;3.97;;;14.80;1.00;;;;;;4994242;28;20179;-69
2022/11/03 09:39:15;;;;;;;6.50;3.33;;;15.40;1.00;;;;;;4991804;28;20277;-71
2022/11/03 09:41:41;;;;;;;7.93;3.77;;;16.10;99.90;;;;;;4987898;28;20179;-70
2022/11/03 09:44:07;;;;;;;12.03;4.30;;;16.70;99.90;;;;;;4986977;28;20190;-70
2022/11/03 09:46:34;;;;;;;7.90;3.70;;;17.00;1.00;;;;;;4991858;28;20981;-70
2022/11/03 09:49:00;;;;;;;5.73;2.80;;;17.40;99.90;;;;;;4985494;28;20677;-70
2022/11/03 09:51:27;;;;;;;8.03;2.70;;;17.40;1.00;;;;;;4989637;28;20643;-70
2022/11/03 09:53:55;;;;;;;5.43;2.50;;;17.00;99.90;;;;;;4987043;28;20659;-70
2022/11/03 09:56:23;;;;;;;4.67;2.20;;;17.00;99.90;;;;;;4988732;28;20203;-70
2022/11/03 09:58:49;;;;;;;5.17;3.20;;;16.70;99.90;;;;;;4994488;28;20666;-68
2022/11/03 10:01:14;;;;;;;6.20;3.00;;;16.50;1.00;;;;;;4995888;28;20281;-69
2022/11/03 10:03:40;;;;;;;7.50;2.50;;;16.60;48.90;;;;;;4990321;28;20180;-68
2022/11/03 10:06:06;;;;;;;8.03;2.50;;;16.70;99.90;;;;;;4988181;28;20579;-69
2022/11/03 10:08:36;;;;;;;4.97;2.80;;;16.70;1.00;;;;;;4988003;28;20616;-69
2022/11/03 10:11:05;;;;;;;5.00;2.40;;;16.60;99.90;;;;;;5004133;28;20176;-69
2022/11/03 10:13:38;;;;;;;4.37;2.40;;;16.40;98.70;;;;;;4991390;28;20203;-69
2022/11/03 10:16:08;;;;;;;8.63;2.87;;;16.30;99.90;;;;;;4985597;28;20222;-68
2022/11/03 10:18:35;;;;;;;4.30;2.53;;;16.10;99.90;;;;;;4992021;28;20220;-69
2022/11/03 10:21:06;;;;;;;5.97;2.70;;;16.00;1.00;;;;;;4978806;28;20573;-68
2022/11/03 10:23:32;;;;;;;5.67;2.57;;;16.00;1.00;;;;;;4995251;28;20186;-68
2022/11/03 10:26:08;;;;;;;6.77;2.50;;;15.80;1.00;;;;;;4992665;28;20183;-68
2022/11/03 10:28:34;;;;;;;7.63;2.67;;;15.70;60.70;;;;;;4998117;28;20247;-68
2022/11/03 10:31:05;;;;;;;7.70;2.43;;;15.50;99.90;;;;;;4994687;28;20222;-69
2022/11/03 10:33:32;;;;;;;7.63;2.70;;;15.40;99.90;;;;;;4991172;28;20197;-69
2022/11/03 10:36:03;;;;;;;3.47;2.30;;;15.50;99.90;;;;;;4994609;28;20186;-69
2022/11/03 10:38:34;;;;;;;4.67;2.10;;;15.70;99.90;;;;;;4982446;28;20222;-68
2022/11/03 10:41:16;;;;;;;4.57;2.53;;;15.90;1.00;;;;;;5011128;28;20178;-70
2022/11/03 10:44:03;;;;;;;8.60;2.57;;;15.80;1.00;;;;;;4998259;28;20210;-70
2022/11/03 10:46:29;;;;;;;7.93;3.13;;;15.90;1.00;;;;;;4992532;28;20187;-70
2022/11/03 10:49:19;;;;;;;6.00;2.50;;;15.80;1.00;;;;;;4997405;28;20712;-70
2022/11/03 10:51:48;;;;;;;8.90;2.47;;;15.90;99.90;;;;;;5001077;28;20642;-69
2022/11/03 10:54:16;;;;;;;4.40;2.30;;;15.80;1.00;;;;;;4992301;28;20229;-69
2022/11/03 10:56:43;;;;;;;6.63;2.00;;;15.80;1.00;;;;;;4996177;28;20224;-69
2022/11/03 10:59:17;;;;;;;8.67;2.50;;;15.90;99.90;;;;;;4990836;28;20273;-69
2022/11/03 11:01:42;;;;;;;4.20;1.97;;;16.00;99.90;;;;;;4991372;28;20243;-69
2022/11/03 11:04:17;;;;;;;8.43;2.40;;;16.00;96.90;;;;;;4988749;28;20187;-69
2022/11/03 11:06:44;;;;;;;5.77;2.10;;;16.00;1.00;;;;;;4992244;28;20505;-69
2022/11/03 11:09:13;;;;;;;4.57;2.20;;;16.00;1.00;;;;;;4989381;28;20180;-69
2022/11/03 11:11:39;;;;;;;2.07;1.87;;;16.00;1.00;;;;;;4986188;28;20244;-70
2022/11/03 11:14:35;;;;;;;5.27;2.40;;;16.20;1.00;;;;;;4994535;28;20941;-69
2022/11/03 11:17:02;;;;;;;7.37;2.40;;;16.40;1.00;;;;;;4987370;28;20251;-70
2022/11/03 11:19:29;;;;;;;3.83;2.40;;;16.50;42.90;;;;;;4995268;28;20245;-68
2022/11/03 11:21:54;;;;;;;4.37;1.80;;;16.60;1.00;;;;;;4996557;28;20188;-69
2022/11/03 11:24:49;;;;;;;5.17;2.60;;;16.50;97.10;;;;;;4990856;28;20232;-70
2022/11/03 11:27:33;;;;;;;6.40;2.27;;;16.50;1.00;;;;;;4985242;28;20700;-70
2022/11/03 11:29:59;;;;;;;5.90;2.30;;;16.50;99.90;;;;;;5001028;28;20261;-70
2022/11/03 11:32:45;;;;;;;6.60;2.43;;;16.50;1.00;;;;;;4996029;28;20219;-69
2022/11/03 11:35:16;;;;;;;5.67;2.40;;;16.80;1.00;;;;;;4976893;28;20279;-69
2022/11/03 11:37:42;;;;;;;3.30;2.30;;;16.80;99.90;;;;;;4985760;28;20179;-69
2022/11/03 11:40:13;;;;;;;6.40;2.20;;;17.00;99.90;;;;;;4996780;28;20244;-69
2022/11/03 11:43:00;;;;;;;4.17;2.13;;;17.20;1.00;;;;;;4991380;28;20187;-70
2022/11/03 11:46:03;;;;;;;7.47;2.30;;;17.50;1.00;;;;;;4988527;28;20180;-70
2022/11/03 11:48:29;;;;;;;6.60;1.92;;;18.00;1.00;;;;;;5008424;28;20620;-70
2022/11/03 11:50:57;;;;;;;5.22;1.83;;;18.00;99.90;;;;;;4996614;28;20202;-70
2022/11/03 11:53:24;;;;;;;2.22;1.60;;;17.80;99.90;;;;;;4998596;28;20303;-70
2022/11/03 11:56:01;;;;;;;4.87;2.03;;;17.40;1.00;;;;;;4980851;28;20206;-68
2022/11/03 11:58:36;;;;;;;4.43;1.90;;;17.20;1.00;;;;;;4990176;28;20613;-70
2022/11/03 12:01:05;;;;;;;7.33;2.37;;;17.00;1.00;;;;;;4991802;28;20175;-68
2022/11/03 12:03:41;;;;;;;4.43;1.97;;;17.00;1.00;;;;;;4989976;28;20183;-67
2022/11/03 12:06:10;;;;;;;2.57;1.93;;;16.80;99.90;;;;;;5001398;28;20178;-68
2022/11/03 12:08:36;;;;;;;4.10;2.00;;;16.70;1.00;;;;;;5002976;28;20183;-69
2022/11/03 12:11:04;;;;;;;4.17;2.00;;;16.70;1.00;;;;;;4987875;28;20211;-69
2022/11/03 12:13:43;;;;;;;3.07;1.70;;;16.70;1.00;;;;;;4988448;28;20694;-68
2022/11/03 12:16:26;;;;;;;6.10;2.30;;;16.60;99.90;;;;;;4999971;28;20254;-68
2022/11/03 12:18:52;;;;;;;3.17;1.80;;;16.60;99.90;;;;;;4980792;28;20211;-68
2022/11/03 12:21:44;;;;;;;4.00;2.23;;;16.60;1.00;;;;;;4983831;28;20172;-67
2022/11/03 12:24:32;;;;;;;4.30;2.03;;;16.60;99.90;;;;;;4989269;28;20661;-70
2022/11/03 12:27:01;;;;;;;5.50;2.00;;;16.50;1.00;;;;;;4975802;28;21692;-69
2022/11/03 12:29:27;;;;;;;6.33;2.10;;;16.50;1.00;;;;;;4984078;28;20718;-69
2022/11/03 12:31:53;;;;;;;3.77;1.80;;;16.40;99.90;;;;;;4985398;28;20306;-70
2022/11/03 12:34:18;;;;;;;5.03;2.00;;;16.40;1.00;;;;;;4995959;28;20648;-68
2022/11/03 12:36:44;;;;;;;6.00;2.10;;;16.10;1.00;;;;;;5002819;28;20254;-70
2022/11/03 12:39:10;;;;;;;6.23;2.37;;;15.90;1.00;;;;;;4993694;28;20289;-69
2022/11/03 12:41:36;;;;;;;5.67;2.23;;;15.80;1.00;;;;;;4986041;28;20180;-71
2022/11/03 12:44:02;;;;;;;4.53;2.30;;;15.70;1.00;;;;;;4979671;28;20675;-69
2022/11/03 12:46:28;;;;;;;6.20;1.93;;;15.60;1.00;;;;;;4991418;28;20178;-69
2022/11/03 12:48:53;;;;;;;2.53;2.10;;;15.50;1.00;;;;;;4996651;28;20661;-69
2022/11/03 12:51:22;;;;;;;3.37;2.03;;;15.50;1.00;;;;;;4984460;28;20167;-69
2022/11/03 12:53:48;;;;;;;4.27;2.43;;;15.20;1.00;;;;;;4992958;28;20175;-69
2022/11/03 12:56:15;;;;;;;3.83;2.10;;;15.00;1.00;;;;;;4991601;28;20237;-68
2022/11/03 12:58:41;;;;;;;6.67;2.57;;;14.90;1.00;;;;;;5006706;28;20225;-68
2022/11/03 13:01:07;;;;;;;5.50;2.30;;;14.80;1.00;;;;;;4998002;28;20167;-68
2022/11/03 13:03:34;;;;;;;3.93;2.40;;;14.70;3.20;;;;;;4980945;28;20698;-69
2022/11/03 13:06:01;;;;;;;2.40;2.20;;;14.60;4.40;;;;;;4993694;28;20257;-69
2022/11/03 13:08:27;;;;;;;4.43;2.83;;;14.70;12.10;;;;;;4993967;28;20179;-69
2022/11/03 13:10:52;;;;;;;3.97;2.30;;;14.60;16.50;;;;;;4984114;28;20187;-68
2022/11/03 13:13:18;;;;;;;3.33;2.33;;;14.50;18.70;;;;;;4977058;28;20184;-68
2022/11/03 13:15:44;;;;;;;4.13;2.37;;;14.60;28.20;;;;;;4992828;28;20576;-68
2022/11/03 13:18:10;;;;;;;4.20;2.47;;;14.50;24.30;;;;;;5006331;28;20213;-68